sensor_id;sensor_type;location;lat;lon;timestamp;P1;durP1;ratioP1;P2;durP2;ratioP2
5650;SDS011;40241;52.684;9.758;2023-04-24T00:01:16;1.00;;;1.00;;
5650;SDS011;40241;52.684;9.758;2023-04-24T00:03:42;1.10;;;1.10;;
5650;SDS011;40241;52.684;9.758;2023-04-24T00:06:07;1.30;;;1.30;;
5650;SDS011;40241;52.684;9.758;2023-04-24T00:08:33;1.00;;;0.90;;
5650;SDS011;40241;52.684;9.758;2023-04-24T00:11:01;1.00;;;1.00;;
5650;SDS011;40241;52.684;9.758;2023-04-24T00:13:27;0.80;;;0.80;;
5650;SDS011;40241;52.684;9.758;2023-04-24T00:15:53;1.03;;;0.90;;
5650;SDS011;40241;52.684;9.758;2023-04-24T00:18:19;0.77;;;0.77;;
5650;SDS011;40241;52.684;9.758;2023-04-24T00:20:45;0.60;;;0.60;;
5650;SDS011;40241;52.684;9.758;2023-04-24T00:23:11;0.80;;;0.80;;
5650;SDS011;40241;52.684;9.758;2023-04-24T00:25:36;3.70;;;0.90;;
5650;SDS011;40241;52.684;9.758;2023-04-24T00:28:02;0.60;;;0.60;;
5650;SDS011;40241;52.684;9.758;2023-04-24T00:30:27;0.77;;;0.77;;
5650;SDS011;40241;52.684;9.758;2023-04-24T00:32:52;0.67;;;0.67;;
5650;SDS011;40241;52.684;9.758;2023-04-24T00:35:17;0.80;;;0.80;;
5650;SDS011;40241;52.684;9.758;2023-04-24T00:37:44;0.83;;;0.83;;
5650;SDS011;40241;52.684;9.758;2023-04-24T00:40:10;0.80;;;0.70;;
5650;SDS011;40241;52.684;9.758;2023-04-24T00:42:35;0.60;;;0.60;;
5650;SDS011;40241;52.684;9.758;2023-04-24T00:45:01;0.70;;;0.50;;
5650;SDS011;40241;52.684;9.758;2023-04-24T00:47:28;0.60;;;0.60;;
5650;SDS011;40241;52.684;9.758;2023-04-24T00:49:53;0.63;;;0.63;;
5650;SDS011;40241;52.684;9.758;2023-04-24T00:52:20;0.90;;;0.70;;
5650;SDS011;40241;52.684;9.758;2023-04-24T00:54:45;0.60;;;0.60;;
5650;SDS011;40241;52.684;9.758;2023-04-24T00:57:11;0.60;;;0.50;;
5650;SDS011;40241;52.684;9.758;2023-04-24T00:59:39;0.50;;;0.50;;
5650;SDS011;40241;52.684;9.758;2023-04-24T01:02:06;0.50;;;0.50;;
5650;SDS011;40241;52.684;9.758;2023-04-24T01:04:32;0.63;;;0.57;;
5650;SDS011;40241;52.684;9.758;2023-04-24T01:06:58;0.57;;;0.50;;
5650;SDS011;40241;52.684;9.758;2023-04-24T01:09:23;0.87;;;0.53;;
5650;SDS011;40241;52.684;9.758;2023-04-24T01:11:49;1.53;;;0.60;;
5650;SDS011;40241;52.684;9.758;2023-04-24T01:14:15;0.60;;;0.50;;
5650;SDS011;40241;52.684;9.758;2023-04-24T01:16:41;0.80;;;0.80;;
5650;SDS011;40241;52.684;9.758;2023-04-24T01:19:06;0.90;;;0.57;;
5650;SDS011;40241;52.684;9.758;2023-04-24T01:21:33;0.60;;;0.60;;
5650;SDS011;40241;52.684;9.758;2023-04-24T01:24:01;0.77;;;0.70;;
5650;SDS011;40241;52.684;9.758;2023-04-24T01:26:27;0.60;;;0.60;;
5650;SDS011;40241;52.684;9.758;2023-04-24T01:28:53;0.50;;;0.40;;
5650;SDS011;40241;52.684;9.758;2023-04-24T01:31:18;0.50;;;0.43;;
5650;SDS011;40241;52.684;9.758;2023-04-24T01:33:44;0.60;;;0.60;;
5650;SDS011;40241;52.684;9.758;2023-04-24T01:36:12;0.60;;;0.60;;
5650;SDS011;40241;52.684;9.758;2023-04-24T01:38:38;0.50;;;0.50;;
5650;SDS011;40241;52.684;9.758;2023-04-24T01:41:03;0.80;;;0.50;;
5650;SDS011;40241;52.684;9.758;2023-04-24T01:43:29;0.60;;;0.60;;
5650;SDS011;40241;52.684;9.758;2023-04-24T01:45:54;0.50;;;0.50;;
5650;SDS011;40241;52.684;9.758;2023-04-24T01:48:20;0.63;;;0.63;;
5650;SDS011;40241;52.684;9.758;2023-04-24T01:50:45;1.27;;;0.60;;
5650;SDS011;40241;52.684;9.758;2023-04-24T01:53:11;0.70;;;0.50;;
5650;SDS011;40241;52.684;9.758;2023-04-24T01:55:37;0.50;;;0.50;;
5650;SDS011;40241;52.684;9.758;2023-04-24T01:58:02;0.60;;;0.57;;
5650;SDS011;40241;52.684;9.758;2023-04-24T02:00:28;0.70;;;0.60;;
5650;SDS011;40241;52.684;9.758;2023-04-24T02:02:53;0.50;;;0.40;;
5650;SDS011;40241;52.684;9.758;2023-04-24T02:05:18;1.27;;;0.50;;
5650;SDS011;40241;52.684;9.758;2023-04-24T02:07:44;1.23;;;0.40;;
5650;SDS011;40241;52.684;9.758;2023-04-24T02:10:09;0.50;;;0.40;;
5650;SDS011;40241;52.684;9.758;2023-04-24T02:12:35;0.50;;;0.30;;
5650;SDS011;40241;52.684;9.758;2023-04-24T02:15:00;0.50;;;0.30;;
5650;SDS011;40241;52.684;9.758;2023-04-24T02:17:26;0.70;;;0.40;;
5650;SDS011;40241;52.684;9.758;2023-04-24T02:19:51;0.50;;;0.30;;
5650;SDS011;40241;52.684;9.758;2023-04-24T02:22:16;0.57;;;0.40;;
5650;SDS011;40241;52.684;9.758;2023-04-24T02:24:42;0.40;;;0.30;;
5650;SDS011;40241;52.684;9.758;2023-04-24T02:27:07;0.47;;;0.40;;
5650;SDS011;40241;52.684;9.758;2023-04-24T02:29:33;0.80;;;0.50;;
5650;SDS011;40241;52.684;9.758;2023-04-24T02:31:58;0.50;;;0.30;;
5650;SDS011;40241;52.684;9.758;2023-04-24T02:34:23;0.50;;;0.30;;
5650;SDS011;40241;52.684;9.758;2023-04-24T02:36:49;2.23;;;0.50;;
5650;SDS011;40241;52.684;9.758;2023-04-24T02:39:14;2.00;;;0.60;;
5650;SDS011;40241;52.684;9.758;2023-04-24T02:41:41;0.50;;;0.30;;
5650;SDS011;40241;52.684;9.758;2023-04-24T02:44:07;0.50;;;0.40;;
5650;SDS011;40241;52.684;9.758;2023-04-24T02:46:32;0.47;;;0.40;;
5650;SDS011;40241;52.684;9.758;2023-04-24T02:48:58;0.50;;;0.40;;
5650;SDS011;40241;52.684;9.758;2023-04-24T02:51:23;0.70;;;0.43;;
5650;SDS011;40241;52.684;9.758;2023-04-24T02:53:48;0.50;;;0.40;;
5650;SDS011;40241;52.684;9.758;2023-04-24T02:56:14;0.50;;;0.40;;
5650;SDS011;40241;52.684;9.758;2023-04-24T02:58:39;0.60;;;0.40;;
5650;SDS011;40241;52.684;9.758;2023-04-24T03:01:05;0.50;;;0.40;;
5650;SDS011;40241;52.684;9.758;2023-04-24T03:03:30;0.50;;;0.40;;
5650;SDS011;40241;52.684;9.758;2023-04-24T03:05:56;0.50;;;0.40;;
5650;SDS011;40241;52.684;9.758;2023-04-24T03:08:22;0.63;;;0.63;;
5650;SDS011;40241;52.684;9.758;2023-04-24T03:10:47;0.50;;;0.40;;
5650;SDS011;40241;52.684;9.758;2023-04-24T03:13:13;1.17;;;0.47;;
5650;SDS011;40241;52.684;9.758;2023-04-24T03:15:38;0.50;;;0.40;;
5650;SDS011;40241;52.684;9.758;2023-04-24T03:18:04;0.50;;;0.50;;
5650;SDS011;40241;52.684;9.758;2023-04-24T03:20:29;0.50;;;0.40;;
5650;SDS011;40241;52.684;9.758;2023-04-24T03:22:55;0.50;;;0.50;;
5650;SDS011;40241;52.684;9.758;2023-04-24T03:25:21;1.23;;;0.40;;
5650;SDS011;40241;52.684;9.758;2023-04-24T03:27:46;0.60;;;0.50;;
5650;SDS011;40241;52.684;9.758;2023-04-24T03:30:12;0.50;;;0.40;;
5650;SDS011;40241;52.684;9.758;2023-04-24T03:32:37;0.53;;;0.53;;
5650;SDS011;40241;52.684;9.758;2023-04-24T03:35:04;0.50;;;0.47;;
5650;SDS011;40241;52.684;9.758;2023-04-24T03:37:31;0.60;;;0.60;;
5650;SDS011;40241;52.684;9.758;2023-04-24T03:39:56;0.53;;;0.50;;
5650;SDS011;40241;52.684;9.758;2023-04-24T03:42:22;1.33;;;0.50;;
5650;SDS011;40241;52.684;9.758;2023-04-24T03:44:47;0.80;;;0.70;;
5650;SDS011;40241;52.684;9.758;2023-04-24T03:47:13;0.50;;;0.40;;
5650;SDS011;40241;52.684;9.758;2023-04-24T03:49:38;0.50;;;0.40;;
5650;SDS011;40241;52.684;9.758;2023-04-24T03:52:03;0.50;;;0.50;;
5650;SDS011;40241;52.684;9.758;2023-04-24T03:54:29;0.70;;;0.53;;
5650;SDS011;40241;52.684;9.758;2023-04-24T03:56:54;0.50;;;0.40;;
5650;SDS011;40241;52.684;9.758;2023-04-24T03:59:19;0.50;;;0.40;;
5650;SDS011;40241;52.684;9.758;2023-04-24T04:01:45;0.57;;;0.53;;
5650;SDS011;40241;52.684;9.758;2023-04-24T04:04:10;0.50;;;0.40;;
5650;SDS011;40241;52.684;9.758;2023-04-24T04:06:36;0.50;;;0.50;;
5650;SDS011;40241;52.684;9.758;2023-04-24T04:09:02;0.60;;;0.40;;
5650;SDS011;40241;52.684;9.758;2023-04-24T04:11:28;0.60;;;0.47;;
5650;SDS011;40241;52.684;9.758;2023-04-24T04:13:54;0.60;;;0.60;;
5650;SDS011;40241;52.684;9.758;2023-04-24T04:16:19;0.90;;;0.63;;
5650;SDS011;40241;52.684;9.758;2023-04-24T04:18:45;0.80;;;0.70;;
5650;SDS011;40241;52.684;9.758;2023-04-24T04:21:10;0.60;;;0.60;;
5650;SDS011;40241;52.684;9.758;2023-04-24T04:23:36;0.70;;;0.60;;
5650;SDS011;40241;52.684;9.758;2023-04-24T04:26:02;2.30;;;0.60;;
5650;SDS011;40241;52.684;9.758;2023-04-24T04:28:28;0.50;;;0.50;;
5650;SDS011;40241;52.684;9.758;2023-04-24T04:30:55;0.50;;;0.50;;
5650;SDS011;40241;52.684;9.758;2023-04-24T04:33:22;0.50;;;0.43;;
5650;SDS011;40241;52.684;9.758;2023-04-24T04:35:51;0.63;;;0.50;;
5650;SDS011;40241;52.684;9.758;2023-04-24T04:38:21;4.63;;;0.93;;
5650;SDS011;40241;52.684;9.758;2023-04-24T04:40:47;0.73;;;0.60;;
5650;SDS011;40241;52.684;9.758;2023-04-24T04:43:13;0.50;;;0.40;;
5650;SDS011;40241;52.684;9.758;2023-04-24T04:45:39;1.73;;;0.70;;
5650;SDS011;40241;52.684;9.758;2023-04-24T04:48:07;0.70;;;0.60;;
5650;SDS011;40241;52.684;9.758;2023-04-24T04:50:34;0.60;;;0.57;;
5650;SDS011;40241;52.684;9.758;2023-04-24T04:52:59;0.77;;;0.77;;
5650;SDS011;40241;52.684;9.758;2023-04-24T04:55:25;0.70;;;0.50;;
5650;SDS011;40241;52.684;9.758;2023-04-24T04:57:50;0.70;;;0.50;;
5650;SDS011;40241;52.684;9.758;2023-04-24T05:00:16;0.50;;;0.50;;
5650;SDS011;40241;52.684;9.758;2023-04-24T05:02:42;0.50;;;0.40;;
5650;SDS011;40241;52.684;9.758;2023-04-24T05:05:08;0.50;;;0.47;;
5650;SDS011;40241;52.684;9.758;2023-04-24T05:07:34;0.50;;;0.40;;
5650;SDS011;40241;52.684;9.758;2023-04-24T05:09:59;1.90;;;0.40;;
5650;SDS011;40241;52.684;9.758;2023-04-24T05:12:25;2.13;;;0.67;;
5650;SDS011;40241;52.684;9.758;2023-04-24T05:14:50;0.73;;;0.40;;
5650;SDS011;40241;52.684;9.758;2023-04-24T05:17:16;0.50;;;0.43;;
5650;SDS011;40241;52.684;9.758;2023-04-24T05:19:42;0.60;;;0.50;;
5650;SDS011;40241;52.684;9.758;2023-04-24T05:22:07;0.50;;;0.40;;
5650;SDS011;40241;52.684;9.758;2023-04-24T05:24:34;0.50;;;0.40;;
5650;SDS011;40241;52.684;9.758;2023-04-24T05:27:00;0.87;;;0.50;;
5650;SDS011;40241;52.684;9.758;2023-04-24T05:29:27;0.50;;;0.43;;
5650;SDS011;40241;52.684;9.758;2023-04-24T05:31:52;0.50;;;0.40;;
5650;SDS011;40241;52.684;9.758;2023-04-24T05:34:18;2.40;;;0.50;;
5650;SDS011;40241;52.684;9.758;2023-04-24T05:36:43;0.93;;;0.60;;
5650;SDS011;40241;52.684;9.758;2023-04-24T05:39:08;0.50;;;0.47;;
5650;SDS011;40241;52.684;9.758;2023-04-24T05:41:34;0.70;;;0.43;;
5650;SDS011;40241;52.684;9.758;2023-04-24T05:43:59;1.10;;;0.50;;
5650;SDS011;40241;52.684;9.758;2023-04-24T05:46:25;0.50;;;0.50;;
5650;SDS011;40241;52.684;9.758;2023-04-24T05:48:50;1.13;;;0.50;;
5650;SDS011;40241;52.684;9.758;2023-04-24T05:51:15;0.50;;;0.50;;
5650;SDS011;40241;52.684;9.758;2023-04-24T05:53:41;0.50;;;0.40;;
5650;SDS011;40241;52.684;9.758;2023-04-24T05:56:06;0.50;;;0.47;;
5650;SDS011;40241;52.684;9.758;2023-04-24T05:58:32;0.50;;;0.40;;
5650;SDS011;40241;52.684;9.758;2023-04-24T06:00:57;1.03;;;0.57;;
5650;SDS011;40241;52.684;9.758;2023-04-24T06:03:23;0.57;;;0.57;;
5650;SDS011;40241;52.684;9.758;2023-04-24T06:05:52;0.90;;;0.60;;
5650;SDS011;40241;52.684;9.758;2023-04-24T06:08:17;0.50;;;0.50;;
5650;SDS011;40241;52.684;9.758;2023-04-24T06:10:43;0.70;;;0.50;;
5650;SDS011;40241;52.684;9.758;2023-04-24T06:13:08;0.53;;;0.50;;
5650;SDS011;40241;52.684;9.758;2023-04-24T06:15:33;1.23;;;0.60;;
5650;SDS011;40241;52.684;9.758;2023-04-24T06:17:59;0.50;;;0.50;;
5650;SDS011;40241;52.684;9.758;2023-04-24T06:20:24;0.50;;;0.47;;
5650;SDS011;40241;52.684;9.758;2023-04-24T06:22:50;0.60;;;0.43;;
5650;SDS011;40241;52.684;9.758;2023-04-24T06:25:16;0.50;;;0.40;;
5650;SDS011;40241;52.684;9.758;2023-04-24T06:27:41;0.90;;;0.50;;
5650;SDS011;40241;52.684;9.758;2023-04-24T06:30:07;0.60;;;0.57;;
5650;SDS011;40241;52.684;9.758;2023-04-24T06:32:32;1.43;;;0.50;;
5650;SDS011;40241;52.684;9.758;2023-04-24T06:34:58;0.60;;;0.50;;
5650;SDS011;40241;52.684;9.758;2023-04-24T06:37:23;0.60;;;0.50;;
5650;SDS011;40241;52.684;9.758;2023-04-24T06:39:48;0.67;;;0.67;;
5650;SDS011;40241;52.684;9.758;2023-04-24T06:42:14;0.70;;;0.50;;
5650;SDS011;40241;52.684;9.758;2023-04-24T06:44:40;0.90;;;0.70;;
5650;SDS011;40241;52.684;9.758;2023-04-24T06:47:08;0.60;;;0.53;;
5650;SDS011;40241;52.684;9.758;2023-04-24T06:49:35;1.47;;;0.90;;
5650;SDS011;40241;52.684;9.758;2023-04-24T06:52:00;0.70;;;0.70;;
5650;SDS011;40241;52.684;9.758;2023-04-24T06:54:26;1.23;;;0.97;;
5650;SDS011;40241;52.684;9.758;2023-04-24T06:56:51;0.77;;;0.77;;
5650;SDS011;40241;52.684;9.758;2023-04-24T06:59:17;1.70;;;0.90;;
5650;SDS011;40241;52.684;9.758;2023-04-24T07:01:42;0.90;;;0.90;;
5650;SDS011;40241;52.684;9.758;2023-04-24T07:04:08;1.13;;;1.13;;
5650;SDS011;40241;52.684;9.758;2023-04-24T07:06:33;1.00;;;1.00;;
5650;SDS011;40241;52.684;9.758;2023-04-24T07:09:00;1.13;;;1.13;;
5650;SDS011;40241;52.684;9.758;2023-04-24T07:11:26;1.80;;;1.70;;
5650;SDS011;40241;52.684;9.758;2023-04-24T07:13:54;1.67;;;1.57;;
5650;SDS011;40241;52.684;9.758;2023-04-24T07:16:20;1.50;;;1.40;;
5650;SDS011;40241;52.684;9.758;2023-04-24T07:18:45;2.33;;;1.63;;
5650;SDS011;40241;52.684;9.758;2023-04-24T07:21:10;1.57;;;1.53;;
5650;SDS011;40241;52.684;9.758;2023-04-24T07:23:36;1.70;;;1.60;;
5650;SDS011;40241;52.684;9.758;2023-04-24T07:26:01;1.30;;;1.30;;
5650;SDS011;40241;52.684;9.758;2023-04-24T07:28:27;2.30;;;2.10;;
5650;SDS011;40241;52.684;9.758;2023-04-24T07:30:56;2.63;;;2.43;;
5650;SDS011;40241;52.684;9.758;2023-04-24T07:33:21;2.70;;;2.50;;
5650;SDS011;40241;52.684;9.758;2023-04-24T07:35:47;2.40;;;2.20;;
5650;SDS011;40241;52.684;9.758;2023-04-24T07:38:12;2.00;;;1.90;;
5650;SDS011;40241;52.684;9.758;2023-04-24T07:40:38;2.83;;;2.73;;
5650;SDS011;40241;52.684;9.758;2023-04-24T07:43:03;3.87;;;3.47;;
5650;SDS011;40241;52.684;9.758;2023-04-24T07:45:28;3.43;;;3.17;;
5650;SDS011;40241;52.684;9.758;2023-04-24T07:47:54;6.17;;;3.40;;
5650;SDS011;40241;52.684;9.758;2023-04-24T07:50:19;3.40;;;3.10;;
5650;SDS011;40241;52.684;9.758;2023-04-24T07:52:45;3.20;;;2.90;;
5650;SDS011;40241;52.684;9.758;2023-04-24T07:55:10;3.10;;;2.90;;
5650;SDS011;40241;52.684;9.758;2023-04-24T07:57:36;4.00;;;3.07;;
5650;SDS011;40241;52.684;9.758;2023-04-24T08:00:02;2.60;;;2.50;;
5650;SDS011;40241;52.684;9.758;2023-04-24T08:02:28;3.50;;;3.20;;
5650;SDS011;40241;52.684;9.758;2023-04-24T08:04:54;3.50;;;3.20;;
5650;SDS011;40241;52.684;9.758;2023-04-24T08:07:20;3.33;;;3.13;;
5650;SDS011;40241;52.684;9.758;2023-04-24T08:09:45;4.10;;;3.67;;
5650;SDS011;40241;52.684;9.758;2023-04-24T08:12:11;3.03;;;2.77;;
5650;SDS011;40241;52.684;9.758;2023-04-24T08:14:36;3.27;;;2.97;;
5650;SDS011;40241;52.684;9.758;2023-04-24T08:17:01;4.00;;;3.00;;
5650;SDS011;40241;52.684;9.758;2023-04-24T08:19:27;3.13;;;2.90;;
5650;SDS011;40241;52.684;9.758;2023-04-24T08:21:52;3.10;;;2.83;;
5650;SDS011;40241;52.684;9.758;2023-04-24T08:24:18;3.50;;;3.03;;
5650;SDS011;40241;52.684;9.758;2023-04-24T08:26:43;5.23;;;3.47;;
5650;SDS011;40241;52.684;9.758;2023-04-24T08:29:09;4.37;;;3.77;;
5650;SDS011;40241;52.684;9.758;2023-04-24T08:31:34;4.40;;;3.50;;
5650;SDS011;40241;52.684;9.758;2023-04-24T08:34:00;2.90;;;2.73;;
5650;SDS011;40241;52.684;9.758;2023-04-24T08:36:25;5.50;;;4.30;;
5650;SDS011;40241;52.684;9.758;2023-04-24T08:38:51;4.93;;;4.43;;
5650;SDS011;40241;52.684;9.758;2023-04-24T08:41:18;3.70;;;3.40;;
5650;SDS011;40241;52.684;9.758;2023-04-24T08:43:45;3.43;;;3.23;;
5650;SDS011;40241;52.684;9.758;2023-04-24T08:46:11;4.30;;;4.00;;
5650;SDS011;40241;52.684;9.758;2023-04-24T08:48:38;4.13;;;3.73;;
5650;SDS011;40241;52.684;9.758;2023-04-24T08:51:05;4.57;;;4.17;;
5650;SDS011;40241;52.684;9.758;2023-04-24T08:53:32;4.70;;;4.10;;
5650;SDS011;40241;52.684;9.758;2023-04-24T08:55:58;4.40;;;3.90;;
5650;SDS011;40241;52.684;9.758;2023-04-24T08:58:27;5.10;;;4.60;;
5650;SDS011;40241;52.684;9.758;2023-04-24T09:00:56;4.50;;;3.90;;
5650;SDS011;40241;52.684;9.758;2023-04-24T09:03:22;5.03;;;4.63;;
5650;SDS011;40241;52.684;9.758;2023-04-24T09:05:48;4.27;;;3.97;;
5650;SDS011;40241;52.684;9.758;2023-04-24T09:08:15;4.83;;;3.60;;
5650;SDS011;40241;52.684;9.758;2023-04-24T09:10:43;5.03;;;4.53;;
5650;SDS011;40241;52.684;9.758;2023-04-24T09:13:08;5.30;;;4.90;;
5650;SDS011;40241;52.684;9.758;2023-04-24T09:15:35;4.03;;;3.73;;
5650;SDS011;40241;52.684;9.758;2023-04-24T09:18:01;6.07;;;4.80;;
5650;SDS011;40241;52.684;9.758;2023-04-24T09:20:27;4.40;;;4.07;;
5650;SDS011;40241;52.684;9.758;2023-04-24T09:22:56;4.10;;;3.80;;
5650;SDS011;40241;52.684;9.758;2023-04-24T09:25:22;4.67;;;4.27;;
5650;SDS011;40241;52.684;9.758;2023-04-24T09:27:55;4.73;;;4.23;;
5650;SDS011;40241;52.684;9.758;2023-04-24T09:30:25;4.33;;;4.03;;
5650;SDS011;40241;52.684;9.758;2023-04-24T09:32:58;3.63;;;3.30;;
5650;SDS011;40241;52.684;9.758;2023-04-24T09:35:35;3.90;;;3.60;;
5650;SDS011;40241;52.684;9.758;2023-04-24T09:38:00;3.30;;;3.07;;
5650;SDS011;40241;52.684;9.758;2023-04-24T09:40:26;3.30;;;3.10;;
5650;SDS011;40241;52.684;9.758;2023-04-24T09:42:52;2.90;;;2.80;;
5650;SDS011;40241;52.684;9.758;2023-04-24T09:45:19;4.20;;;3.07;;
5650;SDS011;40241;52.684;9.758;2023-04-24T09:47:45;2.83;;;2.63;;
5650;SDS011;40241;52.684;9.758;2023-04-24T09:52:42;3.90;;;3.60;;
5650;SDS011;40241;52.684;9.758;2023-04-24T09:55:15;2.93;;;2.73;;
5650;SDS011;40241;52.684;9.758;2023-04-24T09:57:51;3.00;;;2.80;;
5650;SDS011;40241;52.684;9.758;2023-04-24T10:00:37;2.87;;;2.67;;
5650;SDS011;40241;52.684;9.758;2023-04-24T10:03:03;3.20;;;3.00;;
5650;SDS011;40241;52.684;9.758;2023-04-24T10:05:33;3.10;;;2.80;;
5650;SDS011;40241;52.684;9.758;2023-04-24T10:08:01;3.17;;;2.90;;
5650;SDS011;40241;52.684;9.758;2023-04-24T10:10:28;2.87;;;2.77;;
5650;SDS011;40241;52.684;9.758;2023-04-24T10:12:54;2.90;;;2.70;;
5650;SDS011;40241;52.684;9.758;2023-04-24T10:15:21;2.57;;;2.37;;
5650;SDS011;40241;52.684;9.758;2023-04-24T10:17:50;3.57;;;3.30;;
5650;SDS011;40241;52.684;9.758;2023-04-24T10:20:22;2.10;;;2.00;;
5650;SDS011;40241;52.684;9.758;2023-04-24T10:22:49;2.30;;;2.20;;
5650;SDS011;40241;52.684;9.758;2023-04-24T10:25:22;2.17;;;2.07;;
5650;SDS011;40241;52.684;9.758;2023-04-24T10:27:50;2.40;;;2.20;;
5650;SDS011;40241;52.684;9.758;2023-04-24T10:30:17;2.70;;;2.50;;
5650;SDS011;40241;52.684;9.758;2023-04-24T10:32:43;2.23;;;2.10;;
5650;SDS011;40241;52.684;9.758;2023-04-24T10:35:09;2.80;;;2.63;;
5650;SDS011;40241;52.684;9.758;2023-04-24T10:37:38;2.10;;;2.00;;
5650;SDS011;40241;52.684;9.758;2023-04-24T10:40:06;2.40;;;2.10;;
5650;SDS011;40241;52.684;9.758;2023-04-24T10:42:33;2.00;;;1.90;;
5650;SDS011;40241;52.684;9.758;2023-04-24T10:44:59;2.03;;;1.93;;
5650;SDS011;40241;52.684;9.758;2023-04-24T10:47:27;2.20;;;2.10;;
5650;SDS011;40241;52.684;9.758;2023-04-24T10:49:52;2.20;;;2.07;;
5650;SDS011;40241;52.684;9.758;2023-04-24T10:52:17;2.07;;;1.97;;
5650;SDS011;40241;52.684;9.758;2023-04-24T10:54:44;2.33;;;1.97;;
5650;SDS011;40241;52.684;9.758;2023-04-24T10:59:48;1.80;;;1.70;;
5650;SDS011;40241;52.684;9.758;2023-04-24T11:02:15;1.30;;;1.30;;
5650;SDS011;40241;52.684;9.758;2023-04-24T11:04:42;2.10;;;1.90;;
5650;SDS011;40241;52.684;9.758;2023-04-24T11:07:09;1.77;;;1.67;;
5650;SDS011;40241;52.684;9.758;2023-04-24T11:09:35;1.50;;;1.40;;
5650;SDS011;40241;52.684;9.758;2023-04-24T11:12:08;1.23;;;1.23;;
5650;SDS011;40241;52.684;9.758;2023-04-24T11:17:29;1.00;;;1.00;;
5650;SDS011;40241;52.684;9.758;2023-04-24T11:20:02;1.60;;;1.50;;
5650;SDS011;40241;52.684;9.758;2023-04-24T11:22:29;1.43;;;1.33;;
5650;SDS011;40241;52.684;9.758;2023-04-24T11:24:59;1.10;;;1.10;;
5650;SDS011;40241;52.684;9.758;2023-04-24T11:27:27;1.33;;;1.00;;
5650;SDS011;40241;52.684;9.758;2023-04-24T11:32:28;1.50;;;1.40;;
5650;SDS011;40241;52.684;9.758;2023-04-24T11:35:12;1.10;;;1.10;;
5650;SDS011;40241;52.684;9.758;2023-04-24T11:37:40;0.90;;;0.80;;
5650;SDS011;40241;52.684;9.758;2023-04-24T11:40:08;0.80;;;0.80;;
5650;SDS011;40241;52.684;9.758;2023-04-24T11:42:35;1.20;;;1.10;;
5650;SDS011;40241;52.684;9.758;2023-04-24T11:45:02;0.80;;;0.80;;
5650;SDS011;40241;52.684;9.758;2023-04-24T11:47:33;1.10;;;1.00;;
5650;SDS011;40241;52.684;9.758;2023-04-24T11:49:59;0.90;;;0.90;;
5650;SDS011;40241;52.684;9.758;2023-04-24T11:52:25;1.00;;;1.00;;
5650;SDS011;40241;52.684;9.758;2023-04-24T11:54:51;1.00;;;1.00;;
5650;SDS011;40241;52.684;9.758;2023-04-24T11:57:18;1.20;;;1.10;;
5650;SDS011;40241;52.684;9.758;2023-04-24T11:59:45;1.00;;;1.00;;
5650;SDS011;40241;52.684;9.758;2023-04-24T12:02:21;1.30;;;1.20;;
5650;SDS011;40241;52.684;9.758;2023-04-24T12:04:51;1.03;;;0.93;;
5650;SDS011;40241;52.684;9.758;2023-04-24T12:07:17;1.10;;;1.00;;
5650;SDS011;40241;52.684;9.758;2023-04-24T12:09:49;0.90;;;0.90;;
5650;SDS011;40241;52.684;9.758;2023-04-24T12:12:23;1.10;;;1.00;;
5650;SDS011;40241;52.684;9.758;2023-04-24T12:14:55;1.00;;;1.00;;
5650;SDS011;40241;52.684;9.758;2023-04-24T12:17:28;1.03;;;1.03;;
5650;SDS011;40241;52.684;9.758;2023-04-24T12:19:59;0.80;;;0.80;;
5650;SDS011;40241;52.684;9.758;2023-04-24T12:22:26;3.03;;;1.03;;
5650;SDS011;40241;52.684;9.758;2023-04-24T12:25:03;0.70;;;0.70;;
5650;SDS011;40241;52.684;9.758;2023-04-24T12:27:33;1.80;;;0.60;;
5650;SDS011;40241;52.684;9.758;2023-04-24T12:29:59;1.30;;;1.20;;
5650;SDS011;40241;52.684;9.758;2023-04-24T12:32:26;1.03;;;1.03;;
5650;SDS011;40241;52.684;9.758;2023-04-24T12:34:52;1.00;;;1.00;;
5650;SDS011;40241;52.684;9.758;2023-04-24T12:37:18;1.10;;;1.00;;
5650;SDS011;40241;52.684;9.758;2023-04-24T12:40:00;0.90;;;0.90;;
5650;SDS011;40241;52.684;9.758;2023-04-24T12:42:33;0.60;;;0.60;;
5650;SDS011;40241;52.684;9.758;2023-04-24T12:45:00;0.60;;;0.60;;
5650;SDS011;40241;52.684;9.758;2023-04-24T12:47:27;0.90;;;0.90;;
5650;SDS011;40241;52.684;9.758;2023-04-24T12:49:53;1.00;;;1.00;;
5650;SDS011;40241;52.684;9.758;2023-04-24T12:52:20;0.70;;;0.70;;
5650;SDS011;40241;52.684;9.758;2023-04-24T12:54:46;2.80;;;0.80;;
5650;SDS011;40241;52.684;9.758;2023-04-24T12:57:12;3.17;;;0.80;;
5650;SDS011;40241;52.684;9.758;2023-04-24T12:59:37;0.90;;;0.90;;
5650;SDS011;40241;52.684;9.758;2023-04-24T13:02:04;0.63;;;0.63;;
5650;SDS011;40241;52.684;9.758;2023-04-24T13:04:29;0.80;;;0.80;;
5650;SDS011;40241;52.684;9.758;2023-04-24T13:06:54;0.60;;;0.60;;
5650;SDS011;40241;52.684;9.758;2023-04-24T13:09:20;0.70;;;0.70;;
5650;SDS011;40241;52.684;9.758;2023-04-24T13:11:45;2.17;;;0.70;;
5650;SDS011;40241;52.684;9.758;2023-04-24T13:14:10;0.70;;;0.70;;
5650;SDS011;40241;52.684;9.758;2023-04-24T13:16:36;0.87;;;0.87;;
5650;SDS011;40241;52.684;9.758;2023-04-24T13:19:01;1.23;;;0.70;;
5650;SDS011;40241;52.684;9.758;2023-04-24T13:21:26;0.60;;;0.50;;
5650;SDS011;40241;52.684;9.758;2023-04-24T13:23:52;0.70;;;0.70;;
5650;SDS011;40241;52.684;9.758;2023-04-24T13:26:18;0.73;;;0.73;;
5650;SDS011;40241;52.684;9.758;2023-04-24T13:28:43;0.70;;;0.70;;
5650;SDS011;40241;52.684;9.758;2023-04-24T13:31:09;1.40;;;1.30;;
5650;SDS011;40241;52.684;9.758;2023-04-24T13:33:34;0.60;;;0.60;;
5650;SDS011;40241;52.684;9.758;2023-04-24T13:36:00;0.50;;;0.47;;
5650;SDS011;40241;52.684;9.758;2023-04-24T13:38:25;0.50;;;0.50;;
5650;SDS011;40241;52.684;9.758;2023-04-24T13:40:50;0.60;;;0.60;;
5650;SDS011;40241;52.684;9.758;2023-04-24T13:43:16;0.60;;;0.50;;
5650;SDS011;40241;52.684;9.758;2023-04-24T13:45:41;0.60;;;0.50;;
5650;SDS011;40241;52.684;9.758;2023-04-24T13:48:06;0.53;;;0.40;;
5650;SDS011;40241;52.684;9.758;2023-04-24T13:50:33;0.50;;;0.40;;
5650;SDS011;40241;52.684;9.758;2023-04-24T13:52:59;0.90;;;0.57;;
5650;SDS011;40241;52.684;9.758;2023-04-24T13:55:26;0.50;;;0.40;;
5650;SDS011;40241;52.684;9.758;2023-04-24T13:57:51;0.57;;;0.40;;
5650;SDS011;40241;52.684;9.758;2023-04-24T14:00:19;0.50;;;0.40;;
5650;SDS011;40241;52.684;9.758;2023-04-24T14:02:46;0.60;;;0.50;;
5650;SDS011;40241;52.684;9.758;2023-04-24T14:05:12;0.70;;;0.60;;
5650;SDS011;40241;52.684;9.758;2023-04-24T14:07:40;0.50;;;0.40;;
5650;SDS011;40241;52.684;9.758;2023-04-24T14:10:05;0.70;;;0.50;;
5650;SDS011;40241;52.684;9.758;2023-04-24T14:12:31;0.60;;;0.53;;
5650;SDS011;40241;52.684;9.758;2023-04-24T14:14:57;0.80;;;0.80;;
5650;SDS011;40241;52.684;9.758;2023-04-24T14:17:22;0.77;;;0.77;;
5650;SDS011;40241;52.684;9.758;2023-04-24T14:19:47;1.10;;;1.10;;
5650;SDS011;40241;52.684;9.758;2023-04-24T14:22:13;1.20;;;1.10;;
5650;SDS011;40241;52.684;9.758;2023-04-24T14:24:38;1.10;;;1.10;;
5650;SDS011;40241;52.684;9.758;2023-04-24T14:27:03;1.10;;;1.10;;
5650;SDS011;40241;52.684;9.758;2023-04-24T14:29:29;1.10;;;1.10;;
5650;SDS011;40241;52.684;9.758;2023-04-24T14:31:54;1.43;;;1.33;;
5650;SDS011;40241;52.684;9.758;2023-04-24T14:34:19;1.40;;;1.10;;
5650;SDS011;40241;52.684;9.758;2023-04-24T14:36:45;1.13;;;1.13;;
5650;SDS011;40241;52.684;9.758;2023-04-24T14:39:10;1.60;;;1.50;;
5650;SDS011;40241;52.684;9.758;2023-04-24T14:41:36;1.57;;;1.40;;
5650;SDS011;40241;52.684;9.758;2023-04-24T14:44:02;2.17;;;1.27;;
5650;SDS011;40241;52.684;9.758;2023-04-24T14:46:28;1.30;;;1.20;;
5650;SDS011;40241;52.684;9.758;2023-04-24T14:48:55;1.30;;;1.20;;
5650;SDS011;40241;52.684;9.758;2023-04-24T14:51:21;1.00;;;1.00;;
5650;SDS011;40241;52.684;9.758;2023-04-24T14:53:46;1.63;;;1.20;;
5650;SDS011;40241;52.684;9.758;2023-04-24T14:56:12;0.73;;;0.73;;
5650;SDS011;40241;52.684;9.758;2023-04-24T14:58:38;1.30;;;1.00;;
5650;SDS011;40241;52.684;9.758;2023-04-24T15:01:03;0.70;;;0.67;;
5650;SDS011;40241;52.684;9.758;2023-04-24T15:03:29;1.73;;;0.97;;
5650;SDS011;40241;52.684;9.758;2023-04-24T15:05:54;2.10;;;1.10;;